createdAt,value
2022-12-18T00:00:14.407Z,28.80
2022-12-18T00:05:17.536Z,30.20
2022-12-18T00:10:20.585Z,23.83
2022-12-18T00:15:25.053Z,25.37
2022-12-18T00:20:28.116Z,24.47
2022-12-18T00:25:31.348Z,24.43
2022-12-18T00:30:38.170Z,29.23
2022-12-18T00:35:41.353Z,25.77
2022-12-18T00:40:44.727Z,25.80
2022-12-18T00:45:50.784Z,26.23
2022-12-18T00:50:53.905Z,21.43
2022-12-18T00:55:56.979Z,23.73
2022-12-18T01:01:01.828Z,23.67
2022-12-18T01:06:08.795Z,21.80
2022-12-18T01:11:13.947Z,21.17
2022-12-18T01:16:19.955Z,20.60
2022-12-18T01:21:25.133Z,19.77
2022-12-18T01:26:30.994Z,20.97
2022-12-18T01:31:36.037Z,19.50
2022-12-18T01:36:41.760Z,19.13
2022-12-18T01:42:01.735Z,18.97
2022-12-18T01:47:06.212Z,19.53
2022-12-18T01:52:09.409Z,18.57
2022-12-18T01:57:12.565Z,19.97
2022-12-18T02:02:17.917Z,19.67
2022-12-18T02:07:30.804Z,19.10
2022-12-18T02:12:44.441Z,21.80
2022-12-18T02:17:53.913Z,19.70
2022-12-18T02:23:16.568Z,19.87
2022-12-18T02:28:25.342Z,20.30
2022-12-18T02:33:32.207Z,20.50
2022-12-18T02:38:36.940Z,20.67
2022-12-18T02:43:55.671Z,19.30
2022-12-18T02:49:08.058Z,19.60
2022-12-18T02:54:19.976Z,24.13
2022-12-18T02:59:33.035Z,23.40
2022-12-18T03:04:41.937Z,21.53
2022-12-18T03:09:52.271Z,22.77
2022-12-18T03:15:04.027Z,21.03
2022-12-18T03:20:12.219Z,20.63
2022-12-18T03:25:19.184Z,20.67
2022-12-18T03:30:24.497Z,20.67
2022-12-18T03:35:32.748Z,18.00
2022-12-18T03:40:46.922Z,19.97
2022-12-18T03:45:56.697Z,20.00
2022-12-18T03:51:07.168Z,17.13
2022-12-18T03:56:12.982Z,18.17
2022-12-18T04:01:22.086Z,17.40
2022-12-18T04:06:25.718Z,16.80
2022-12-18T04:11:29.028Z,15.93
2022-12-18T04:16:33.500Z,17.13
2022-12-18T04:21:39.527Z,17.00
2022-12-18T04:26:42.997Z,14.77
2022-12-18T04:31:54.134Z,14.17
2022-12-18T04:36:57.803Z,15.10
2022-12-18T04:42:02.167Z,14.67
2022-12-18T04:47:08.651Z,15.17
2022-12-18T04:52:11.713Z,13.77
2022-12-18T04:57:14.842Z,14.57
2022-12-18T05:02:19.342Z,14.63
2022-12-18T05:07:22.473Z,13.47
2022-12-18T05:12:26.887Z,14.00
2022-12-18T05:17:31.241Z,14.60
2022-12-18T05:22:34.267Z,15.13
2022-12-18T05:27:37.403Z,15.33
2022-12-18T05:32:42.436Z,13.47
2022-12-18T05:37:45.482Z,14.50
2022-12-18T05:42:48.405Z,13.33
2022-12-18T05:47:52.770Z,14.57
2022-12-18T05:52:56.099Z,14.57
2022-12-18T05:57:59.287Z,14.07
2022-12-18T06:03:04.418Z,13.07
2022-12-18T06:08:09.012Z,12.60
2022-12-18T06:13:12.018Z,13.13
2022-12-18T06:18:16.571Z,11.93
2022-12-18T06:23:19.671Z,12.90
2022-12-18T06:28:22.956Z,11.33
2022-12-18T06:33:29.034Z,12.20
2022-12-18T06:38:32.984Z,12.83
2022-12-18T06:43:36.152Z,11.93
2022-12-18T06:48:40.791Z,12.33
2022-12-18T06:53:43.882Z,12.37
2022-12-18T06:58:47.007Z,12.07
2022-12-18T07:03:54.665Z,12.60
2022-12-18T07:08:57.876Z,10.97
2022-12-18T07:14:00.896Z,11.73
2022-12-18T07:19:05.782Z,11.80
2022-12-18T07:24:09.527Z,11.23
2022-12-18T07:29:12.459Z,12.27
2022-12-18T07:34:26.312Z,11.10
2022-12-18T07:39:45.205Z,11.53
2022-12-18T07:44:48.557Z,11.83
2022-12-18T07:49:53.077Z,11.67
2022-12-18T07:54:56.703Z,12.73
2022-12-18T08:00:00.385Z,10.87
2022-12-18T08:05:05.310Z,11.17
2022-12-18T08:10:10.776Z,11.77
2022-12-18T08:15:13.786Z,12.13
2022-12-18T08:20:19.383Z,10.43
2022-12-18T08:25:22.524Z,10.17
2022-12-18T08:30:25.604Z,10.10
2022-12-18T08:35:35.866Z,9.37
2022-12-18T08:40:40.282Z,9.27
2022-12-18T08:45:43.618Z,9.90
2022-12-18T08:50:57.781Z,8.93
2022-12-18T08:56:01.198Z,10.10
2022-12-18T09:01:05.049Z,9.23
2022-12-18T09:06:10.301Z,10.30
2022-12-18T09:11:16.429Z,8.40
2022-12-18T09:16:20.682Z,10.93
2022-12-18T09:21:25.121Z,10.07
2022-12-18T09:26:29.079Z,9.23
2022-12-18T09:31:32.275Z,10.00
2022-12-18T09:36:36.900Z,9.20
2022-12-18T09:41:48.409Z,10.17
2022-12-18T09:46:57.885Z,10.33
2022-12-18T09:52:07.278Z,11.27
2022-12-18T09:57:21.215Z,11.37
2022-12-18T10:02:27.637Z,11.03
2022-12-18T10:07:42.236Z,10.90
2022-12-18T10:12:59.528Z,10.90
2022-12-18T10:18:21.700Z,10.70
2022-12-18T10:23:30.992Z,10.10
2022-12-18T10:28:40.150Z,7.27
2022-12-18T10:33:43.462Z,8.40
2022-12-18T10:38:47.897Z,9.83
2022-12-18T10:44:10.882Z,7.93
2022-12-18T10:49:28.886Z,9.30
2022-12-18T10:54:35.769Z,9.50
2022-12-18T10:59:53.141Z,9.63
2022-12-18T11:04:56.489Z,9.73
2022-12-18T11:10:04.077Z,10.03
2022-12-18T11:15:09.665Z,9.70
2022-12-18T11:20:25.994Z,11.07
2022-12-18T11:25:32.905Z,11.07
2022-12-18T11:30:38.590Z,11.00
2022-12-18T11:35:49.518Z,10.83
2022-12-18T11:41:01.129Z,7.73
2022-12-18T11:46:11.522Z,9.33
2022-12-18T11:51:28.318Z,11.30
2022-12-18T11:56:37.275Z,11.13
2022-12-18T12:01:51.004Z,10.57
2022-12-18T12:07:04.810Z,10.03
2022-12-18T12:12:25.798Z,10.43
2022-12-18T12:17:38.876Z,11.00
2022-12-18T12:22:53.202Z,9.80
2022-12-18T12:28:15.741Z,9.60
2022-12-18T12:33:35.523Z,9.13
2022-12-18T12:38:49.777Z,10.47
2022-12-18T12:43:59.852Z,10.80
2022-12-18T12:49:10.787Z,10.57
2022-12-18T12:54:19.984Z,11.90
2022-12-18T12:59:32.104Z,12.50
2022-12-18T13:04:42.390Z,12.40
2022-12-18T13:10:17.199Z,11.93
2022-12-18T13:15:26.015Z,10.70
2022-12-18T13:20:38.244Z,11.07
2022-12-18T13:25:41.434Z,12.50
2022-12-18T13:30:52.605Z,12.07
2022-12-18T13:36:04.844Z,13.23
2022-12-18T13:41:25.209Z,11.33
2022-12-18T13:46:32.396Z,12.20
2022-12-18T13:51:37.441Z,11.53
2022-12-18T13:56:46.237Z,12.00
2022-12-18T14:01:55.332Z,11.43
2022-12-18T14:07:04.112Z,12.60
2022-12-18T14:12:26.562Z,12.30
2022-12-18T14:17:33.648Z,11.67
2022-12-18T14:22:37.908Z,10.63
2022-12-18T14:27:45.638Z,11.20
2022-12-18T14:33:06.987Z,12.17
2022-12-18T14:38:24.946Z,12.30
2022-12-18T14:43:29.725Z,12.57
2022-12-18T14:48:50.420Z,11.40
2022-12-18T14:53:57.872Z,11.83
2022-12-18T14:59:02.480Z,11.67
2022-12-18T15:04:25.249Z,10.43
2022-12-18T15:09:30.941Z,12.07
2022-12-18T15:14:41.480Z,11.73
2022-12-18T15:19:48.022Z,11.47
2022-12-18T15:24:51.649Z,10.40
2022-12-18T15:30:24.823Z,10.97
2022-12-18T15:35:29.794Z,12.40
2022-12-18T15:40:36.328Z,11.67
2022-12-18T15:45:39.572Z,12.17
2022-12-18T15:50:43.980Z,11.40
2022-12-18T15:56:05.418Z,10.07
2022-12-18T16:01:14.141Z,11.03
2022-12-18T16:06:20.508Z,12.33
2022-12-18T16:11:39.805Z,12.80
2022-12-18T16:16:43.063Z,11.40
2022-12-18T16:21:49.418Z,11.93
2022-12-18T16:26:54.079Z,11.87
2022-12-18T16:32:16.117Z,11.13
2022-12-18T16:37:20.676Z,10.80
2022-12-18T16:42:30.382Z,12.00
2022-12-18T16:47:33.723Z,12.53
2022-12-18T16:52:41.310Z,13.20
2022-12-18T16:57:47.592Z,11.80
2022-12-18T17:02:50.896Z,11.37
2022-12-18T17:07:55.885Z,12.07
2022-12-18T17:13:00.088Z,12.20
2022-12-18T17:18:03.676Z,12.00
2022-12-18T17:23:21.319Z,11.93
2022-12-18T17:28:26.408Z,11.83
2022-12-18T17:33:32.989Z,12.27
2022-12-18T17:38:42.295Z,12.13
2022-12-18T17:43:54.681Z,12.00
2022-12-18T17:48:58.512Z,12.63
2022-12-18T17:54:03.058Z,11.33
2022-12-18T17:59:07.090Z,12.00
2022-12-18T18:04:10.409Z,11.50
2022-12-18T18:09:16.801Z,13.23
2022-12-18T18:14:21.662Z,11.63
2022-12-18T18:19:26.381Z,12.07
2022-12-18T18:24:31.012Z,11.37
2022-12-18T18:29:34.607Z,11.57
2022-12-18T18:34:41.925Z,12.37
2022-12-18T18:39:46.490Z,13.57
2022-12-18T18:44:52.512Z,12.60
2022-12-18T18:49:56.852Z,12.73
2022-12-18T18:55:13.394Z,12.60
2022-12-18T19:00:18.547Z,12.50
2022-12-18T19:05:22.986Z,13.30
2022-12-18T19:10:27.742Z,14.63
2022-12-18T19:15:34.447Z,13.67
2022-12-18T19:20:38.021Z,14.17
2022-12-18T19:26:10.337Z,13.27
2022-12-18T19:31:24.824Z,13.63
2022-12-18T19:36:31.186Z,13.47
2022-12-18T19:41:35.697Z,13.63
2022-12-18T19:46:41.799Z,13.47
2022-12-18T19:51:45.562Z,13.17
2022-12-18T19:56:55.918Z,14.73
2022-12-18T20:02:05.075Z,13.93
2022-12-18T20:07:08.871Z,14.20
2022-12-18T20:12:13.418Z,16.13
2022-12-18T20:17:16.629Z,14.93
2022-12-18T20:22:20.201Z,16.00
2022-12-18T20:27:24.940Z,15.43
2022-12-18T20:32:31.488Z,14.70
2022-12-18T20:37:39.320Z,15.27
2022-12-18T20:42:47.505Z,16.00
2022-12-18T20:47:50.667Z,14.63
2022-12-18T20:52:53.805Z,15.33
2022-12-18T20:57:59.246Z,15.80
2022-12-18T21:03:02.549Z,15.87
2022-12-18T21:08:06.407Z,16.43
2022-12-18T21:13:12.328Z,16.63
2022-12-18T21:18:16.978Z,16.20
2022-12-18T21:23:20.027Z,16.17
2022-12-18T21:28:24.578Z,17.17
2022-12-18T21:33:27.793Z,16.50
2022-12-18T21:38:33.257Z,16.93
2022-12-18T21:43:57.042Z,16.63
2022-12-18T21:49:00.460Z,15.80
2022-12-18T21:54:04.666Z,16.50
2022-12-18T21:59:11.710Z,16.43
2022-12-18T22:04:15.248Z,17.17
2022-12-18T22:09:20.324Z,15.97
2022-12-18T22:14:24.998Z,16.97
2022-12-18T22:19:28.248Z,17.20
2022-12-18T22:24:31.537Z,17.13
2022-12-18T22:29:53.217Z,17.67
2022-12-18T22:34:59.374Z,18.80
2022-12-18T22:40:08.709Z,18.07
2022-12-18T22:45:13.617Z,19.23
2022-12-18T22:50:16.903Z,18.43
2022-12-18T22:55:20.646Z,16.90
2022-12-18T23:00:25.107Z,18.93
2022-12-18T23:05:32.496Z,20.97
2022-12-18T23:10:38.829Z,15.07
2022-12-18T23:15:44.068Z,18.57
2022-12-18T23:20:47.467Z,19.17
2022-12-18T23:25:50.826Z,21.00
2022-12-18T23:30:55.626Z,19.10
2022-12-18T23:36:00.099Z,18.93
2022-12-18T23:41:08.172Z,21.40
2022-12-18T23:46:13.988Z,19.13
2022-12-18T23:51:18.221Z,20.90
2022-12-18T23:56:21.341Z,20.73
